createdAt,value
2022-09-10T00:02:15.836Z,100.00
2022-09-10T00:12:17.484Z,100.00
2022-09-10T00:22:19.299Z,100.00
2022-09-10T00:32:21.790Z,100.00
2022-09-10T00:42:23.590Z,100.00
2022-09-10T00:52:26.343Z,100.00
2022-09-10T01:02:28.382Z,100.00
2022-09-10T01:12:48.475Z,100.00
2022-09-10T01:23:22.036Z,100.00
2022-09-10T01:34:16.894Z,100.00
2022-09-10T01:44:41.606Z,100.00
2022-09-10T01:55:07.322Z,100.00
2022-09-10T02:05:12.215Z,100.00
2022-09-10T02:15:14.206Z,100.00
2022-09-10T02:25:16.515Z,100.00
2022-09-10T02:35:18.291Z,100.00
2022-09-10T02:45:19.989Z,100.00
2022-09-10T02:55:22.764Z,100.00
2022-09-10T03:05:25.548Z,100.00
2022-09-10T03:15:27.775Z,100.00
2022-09-10T03:25:29.839Z,100.00
2022-09-10T03:35:31.272Z,100.00
2022-09-10T03:45:34.036Z,100.00
2022-09-10T03:55:35.990Z,100.00
2022-09-10T04:05:43.906Z,100.00
2022-09-10T04:15:46.248Z,100.00
2022-09-10T04:25:49.608Z,100.00
2022-09-10T04:35:51.219Z,100.00
2022-09-10T04:45:55.473Z,100.00
2022-09-10T04:55:57.459Z,100.00
2022-09-10T05:06:00.059Z,100.00
2022-09-10T05:16:01.802Z,100.00
2022-09-10T05:26:03.522Z,100.00
2022-09-10T05:36:05.357Z,100.00
2022-09-10T05:46:07.060Z,100.00
2022-09-10T05:56:09.182Z,100.00
2022-09-10T06:06:11.262Z,100.00
2022-09-10T06:16:14.004Z,100.00
2022-09-10T06:26:17.309Z,100.00
2022-09-10T06:36:18.920Z,100.00
2022-09-10T06:46:56.939Z,100.00
2022-09-10T06:56:42.989Z,100.00
2022-09-10T07:06:46.092Z,100.00
2022-09-10T07:16:47.855Z,100.00
2022-09-10T07:26:49.730Z,100.00
2022-09-10T07:36:51.368Z,100.00
2022-09-10T07:46:58.228Z,100.00
2022-09-10T07:56:59.864Z,100.00
2022-09-10T08:07:02.216Z,100.00
2022-09-10T08:17:05.397Z,100.00
2022-09-10T08:27:07.175Z,100.00
2022-09-10T08:37:09.206Z,100.00
2022-09-10T08:47:10.877Z,97.10
2022-09-10T08:57:33.340Z,98.91
2022-09-10T09:07:40.429Z,91.93
2022-09-10T09:18:09.647Z,83.08
2022-09-10T09:28:44.423Z,78.84
2022-09-10T09:38:49.235Z,76.05
2022-09-10T09:48:56.531Z,72.85
2022-09-10T09:59:11.910Z,63.87
2022-09-10T10:09:44.218Z,65.29
2022-09-10T10:19:59.036Z,59.72
2022-09-10T10:30:00.655Z,58.52
2022-09-10T10:40:14.627Z,47.88
2022-09-10T10:50:22.255Z,37.72
2022-09-10T11:00:25.233Z,37.27
2022-09-10T11:10:42.144Z,36.41
2022-09-10T11:20:57.440Z,33.58
2022-09-10T11:31:30.434Z,32.23
2022-09-10T11:41:35.445Z,28.39
2022-09-10T11:51:38.918Z,29.98
2022-09-10T12:02:06.281Z,26.08
2022-09-10T12:12:19.094Z,25.87
2022-09-10T12:22:38.366Z,27.75
2022-09-10T12:32:40.177Z,26.90
2022-09-10T12:42:45.318Z,22.83
2022-09-10T12:52:53.446Z,22.80
2022-09-10T13:02:58.845Z,26.42
2022-09-10T13:13:07.283Z,19.90
2022-09-10T13:23:09.213Z,21.02
2022-09-10T13:33:11.843Z,21.56
2022-09-10T13:43:16.436Z,37.22
2022-09-10T13:53:20.719Z,27.95
2022-09-10T14:03:40.671Z,22.61
2022-09-10T14:13:55.697Z,21.08
2022-09-10T14:23:59.901Z,24.14
2022-09-10T14:34:27.033Z,23.72
2022-09-10T14:44:29.974Z,27.92
2022-09-10T14:54:38.227Z,28.70
2022-09-10T15:04:39.840Z,29.87
2022-09-10T15:14:42.139Z,29.68
2022-09-10T15:25:08.103Z,33.18
2022-09-10T15:35:07.580Z,31.55
2022-09-10T15:45:10.111Z,33.77
2022-09-10T15:55:12.537Z,35.38
2022-09-10T16:05:16.215Z,37.61
2022-09-10T16:15:17.957Z,39.20
2022-09-10T16:25:20.288Z,39.78
2022-09-10T16:35:22.047Z,41.42
2022-09-10T16:45:23.706Z,43.69
2022-09-10T16:55:25.495Z,46.06
2022-09-10T17:05:27.112Z,50.58
2022-09-10T17:15:35.881Z,47.93
2022-09-10T17:25:39.377Z,48.48
2022-09-10T17:35:43.769Z,49.37
2022-09-10T17:45:46.406Z,49.12
2022-09-10T17:55:48.155Z,53.73
2022-09-10T18:05:53.798Z,55.49
2022-09-10T18:15:56.779Z,56.97
2022-09-10T18:25:58.762Z,55.75
2022-09-10T18:36:01.701Z,59.65
2022-09-10T18:46:04.613Z,59.79
2022-09-10T18:56:20.004Z,61.65
2022-09-10T19:06:25.584Z,65.86
2022-09-10T19:16:32.524Z,69.53
2022-09-10T19:26:34.757Z,71.58
2022-09-10T19:36:36.994Z,73.69
2022-09-10T19:46:42.772Z,75.50
2022-09-10T19:56:47.892Z,79.43
2022-09-10T20:06:50.603Z,81.49
2022-09-10T20:16:57.071Z,83.50
2022-09-10T20:26:58.832Z,85.91
2022-09-10T20:37:00.608Z,85.13
2022-09-10T20:47:04.912Z,86.93
2022-09-10T20:57:10.092Z,89.36
2022-09-10T21:07:11.691Z,92.02
2022-09-10T21:17:13.262Z,92.95
2022-09-10T21:27:14.973Z,94.21
2022-09-10T21:37:21.850Z,96.71
2022-09-10T21:47:26.330Z,96.41
2022-09-10T21:57:27.957Z,96.44
2022-09-10T22:07:30.089Z,97.42
2022-09-10T22:17:31.732Z,98.93
2022-09-10T22:27:34.376Z,100.00
2022-09-10T22:37:41.909Z,100.00
2022-09-10T22:47:43.879Z,100.00
2022-09-10T22:57:45.496Z,100.00
2022-09-10T23:07:49.384Z,100.00
2022-09-10T23:17:51.239Z,100.00
2022-09-10T23:27:55.960Z,100.00
2022-09-10T23:37:57.595Z,100.00
2022-09-10T23:47:59.253Z,100.00
2022-09-10T23:58:01.323Z,100.00
